createdAt,value
2022-08-16T00:01:33.748Z,22.30
2022-08-16T00:04:01.924Z,22.30
2022-08-16T00:06:32.942Z,22.30
2022-08-16T00:09:00.064Z,22.20
2022-08-16T00:11:27.365Z,22.20
2022-08-16T00:13:55.567Z,22.20
2022-08-16T00:17:05.375Z,22.20
2022-08-16T00:19:14.478Z,22.20
2022-08-16T00:21:43.547Z,22.20
2022-08-16T00:24:12.207Z,22.20
2022-08-16T00:26:45.340Z,22.20
2022-08-16T00:29:16.055Z,22.30
2022-08-16T00:32:01.073Z,22.20
2022-08-16T00:34:45.132Z,22.20
2022-08-16T00:37:56.586Z,22.20
2022-08-16T00:40:36.468Z,22.20
2022-08-16T00:43:12.248Z,22.20
2022-08-16T00:45:58.063Z,22.10
2022-08-16T00:48:31.878Z,22.20
2022-08-16T00:51:11.712Z,22.10
2022-08-16T00:53:43.742Z,22.10
2022-08-16T00:56:55.898Z,22.10
2022-08-16T00:59:05.188Z,22.10
2022-08-16T01:01:32.824Z,22.10
2022-08-16T01:04:05.342Z,22.10
2022-08-16T01:06:48.726Z,22.00
2022-08-16T01:09:18.499Z,22.00
2022-08-16T01:11:53.704Z,21.90
2022-08-16T01:14:30.426Z,21.90
2022-08-16T01:17:00.080Z,21.90
2022-08-16T01:19:40.860Z,21.80
2022-08-16T01:22:49.828Z,21.80
2022-08-16T01:25:08.286Z,21.80
2022-08-16T01:27:38.537Z,21.70
2022-08-16T01:30:20.511Z,21.70
2022-08-16T01:33:01.407Z,21.70
2022-08-16T01:35:43.229Z,21.60
2022-08-16T01:38:36.101Z,21.60
2022-08-16T01:41:08.199Z,21.60
2022-08-16T01:43:38.408Z,21.50
2022-08-16T01:46:40.183Z,21.50
2022-08-16T01:49:42.824Z,21.50
2022-08-16T01:52:27.627Z,21.40
2022-08-16T01:55:10.269Z,21.30
2022-08-16T01:57:39.008Z,21.30
2022-08-16T02:00:10.587Z,21.30
2022-08-16T02:02:52.237Z,21.20
2022-08-16T02:05:23.506Z,21.20
2022-08-16T02:07:53.504Z,21.10
2022-08-16T02:10:21.733Z,21.10
2022-08-16T02:13:00.178Z,21.00
2022-08-16T02:15:35.486Z,21.00
2022-08-16T02:18:12.830Z,21.00
2022-08-16T02:20:45.573Z,21.00
2022-08-16T02:23:13.813Z,20.90
2022-08-16T02:25:52.421Z,20.80
2022-08-16T02:28:24.875Z,20.80
2022-08-16T02:30:53.816Z,20.80
2022-08-16T02:33:42.735Z,20.80
2022-08-16T02:36:47.477Z,20.70
2022-08-16T02:39:03.591Z,20.70
2022-08-16T02:41:31.915Z,20.60
2022-08-16T02:44:06.081Z,20.60
2022-08-16T02:46:34.637Z,20.60
2022-08-16T02:49:05.884Z,20.50
2022-08-16T02:51:35.858Z,20.50
2022-08-16T02:54:04.126Z,20.50
2022-08-16T02:56:34.266Z,20.40
2022-08-16T02:59:02.214Z,20.40
2022-08-16T03:01:39.193Z,20.40
2022-08-16T03:04:41.234Z,20.40
2022-08-16T03:07:00.381Z,20.40
2022-08-16T03:09:47.239Z,20.30
2022-08-16T03:12:19.362Z,20.30
2022-08-16T03:14:48.187Z,20.20
2022-08-16T03:17:18.673Z,20.20
2022-08-16T03:19:59.399Z,20.20
2022-08-16T03:22:29.379Z,20.20
2022-08-16T03:25:07.663Z,20.20
2022-08-16T03:27:39.148Z,20.20
2022-08-16T03:30:21.308Z,20.20
2022-08-16T03:32:58.994Z,20.20
2022-08-16T03:35:33.806Z,20.10
2022-08-16T03:38:32.699Z,20.10
2022-08-16T03:41:24.337Z,20.00
2022-08-16T03:43:56.044Z,20.00
2022-08-16T03:46:45.084Z,20.00
2022-08-16T03:49:17.363Z,20.00
2022-08-16T03:51:47.885Z,20.00
2022-08-16T03:54:22.030Z,20.00
2022-08-16T03:56:57.190Z,20.10
2022-08-16T03:59:29.725Z,20.10
2022-08-16T04:02:01.099Z,20.10
2022-08-16T04:04:33.482Z,20.10
2022-08-16T04:07:05.631Z,20.20
2022-08-16T04:09:37.962Z,20.10
2022-08-16T04:12:11.264Z,20.20
2022-08-16T04:14:57.487Z,20.20
2022-08-16T04:17:26.874Z,20.20
2022-08-16T04:19:58.172Z,20.20
2022-08-16T04:22:27.974Z,20.20
2022-08-16T04:25:00.576Z,20.20
2022-08-16T04:27:34.547Z,20.30
2022-08-16T04:30:11.028Z,20.30
2022-08-16T04:32:44.365Z,20.30
2022-08-16T04:35:21.421Z,20.30
2022-08-16T04:37:53.946Z,20.40
2022-08-16T04:40:28.118Z,20.40
2022-08-16T04:43:00.633Z,20.50
2022-08-16T04:45:35.760Z,20.50
2022-08-16T04:48:21.841Z,20.50
2022-08-16T04:50:59.278Z,20.60
2022-08-16T04:53:43.122Z,20.60
2022-08-16T04:56:11.383Z,20.60
2022-08-16T04:58:45.608Z,20.70
2022-08-16T05:01:17.910Z,20.80
2022-08-16T05:04:01.046Z,20.80
2022-08-16T05:06:44.754Z,20.90
2022-08-16T05:09:18.922Z,21.00
2022-08-16T05:11:51.097Z,21.00
2022-08-16T05:14:20.237Z,21.10
2022-08-16T05:17:05.529Z,21.20
2022-08-16T05:19:36.027Z,21.20
2022-08-16T05:22:18.108Z,21.30
2022-08-16T05:24:55.155Z,21.40
2022-08-16T05:27:24.026Z,21.50
2022-08-16T05:29:57.513Z,21.50
2022-08-16T05:32:32.911Z,21.60
2022-08-16T05:35:07.814Z,21.70
2022-08-16T05:37:41.900Z,21.80
2022-08-16T05:40:13.533Z,21.90
2022-08-16T05:42:46.004Z,22.00
2022-08-16T05:45:21.997Z,22.10
2022-08-16T05:47:59.626Z,22.20
2022-08-16T05:50:36.204Z,22.30
2022-08-16T05:53:05.294Z,22.30
2022-08-16T05:55:40.613Z,22.40
2022-08-16T05:58:09.206Z,22.50
2022-08-16T06:00:56.908Z,22.60
2022-08-16T06:03:25.569Z,22.70
2022-08-16T06:06:00.694Z,22.80
2022-08-16T06:08:32.381Z,22.80
2022-08-16T06:11:13.241Z,23.00
2022-08-16T06:13:43.466Z,23.00
2022-08-16T06:16:18.386Z,23.10
2022-08-16T06:18:48.062Z,23.20
2022-08-16T06:21:22.636Z,23.40
2022-08-16T06:23:54.102Z,23.50
2022-08-16T06:26:23.136Z,23.70
2022-08-16T06:28:51.909Z,23.90
2022-08-16T06:31:31.590Z,24.00
2022-08-16T06:34:54.217Z,24.20
2022-08-16T06:37:01.076Z,24.40
2022-08-16T06:39:29.293Z,24.50
2022-08-16T06:42:19.886Z,24.50
2022-08-16T06:45:11.173Z,24.60
2022-08-16T06:47:54.143Z,24.70
2022-08-16T06:50:28.954Z,24.70
2022-08-16T06:53:08.424Z,24.70
2022-08-16T06:55:40.240Z,24.70
2022-08-16T06:58:22.075Z,24.70
2022-08-16T07:00:54.295Z,24.70
2022-08-16T07:03:27.412Z,24.70
2022-08-16T07:05:57.670Z,24.70
2022-08-16T07:08:30.948Z,24.70
2022-08-16T07:10:59.918Z,24.60
2022-08-16T07:14:00.727Z,24.60
2022-08-16T07:16:21.038Z,24.60
2022-08-16T07:19:01.283Z,24.60
2022-08-16T07:21:45.665Z,24.60
2022-08-16T07:24:29.757Z,24.60
2022-08-16T07:27:02.740Z,24.70
2022-08-16T07:29:31.843Z,24.70
2022-08-16T07:32:02.597Z,24.80
2022-08-16T07:34:34.868Z,24.90
2022-08-16T07:37:11.202Z,25.00
2022-08-16T07:40:11.546Z,25.10
2022-08-16T07:42:43.419Z,25.20
2022-08-16T07:45:17.013Z,25.30
2022-08-16T07:47:51.191Z,25.50
2022-08-16T07:50:57.694Z,25.60
2022-08-16T07:53:07.159Z,25.80
2022-08-16T07:55:45.767Z,25.90
2022-08-16T07:58:33.931Z,25.90
2022-08-16T08:01:10.803Z,26.00
2022-08-16T08:03:52.777Z,26.00
2022-08-16T08:06:31.901Z,26.10
2022-08-16T08:09:05.337Z,26.10
2022-08-16T08:11:33.392Z,26.10
2022-08-16T08:14:06.892Z,26.10
2022-08-16T08:16:45.561Z,26.10
2022-08-16T08:19:22.603Z,26.00
2022-08-16T08:22:01.004Z,26.00
2022-08-16T08:24:49.437Z,26.00
2022-08-16T08:27:22.783Z,26.00
2022-08-16T08:30:49.721Z,26.00
2022-08-16T08:32:59.888Z,26.00
2022-08-16T08:35:35.181Z,26.00
2022-08-16T08:38:06.712Z,26.00
2022-08-16T08:40:35.677Z,26.00
2022-08-16T08:43:12.078Z,26.00
2022-08-16T08:45:53.030Z,26.00
2022-08-16T08:48:33.431Z,26.10
2022-08-16T08:51:09.000Z,26.10
2022-08-16T08:53:57.986Z,26.10
2022-08-16T08:56:32.178Z,26.10
2022-08-16T08:59:13.325Z,26.10
2022-08-16T09:01:57.295Z,26.10
2022-08-16T09:04:41.096Z,26.00
2022-08-16T09:07:08.252Z,25.80
2022-08-16T09:09:41.175Z,25.70
2022-08-16T09:12:37.152Z,25.60
2022-08-16T09:15:09.529Z,25.50
2022-08-16T09:17:51.708Z,25.30
2022-08-16T09:20:27.195Z,25.30
2022-08-16T09:22:56.054Z,25.20
2022-08-16T09:25:34.433Z,25.20
2022-08-16T09:28:10.590Z,25.10
2022-08-16T09:30:48.249Z,25.20
2022-08-16T09:33:18.371Z,25.30
2022-08-16T09:35:53.142Z,25.40
2022-08-16T09:38:32.230Z,25.60
2022-08-16T09:41:01.150Z,25.80
2022-08-16T09:46:48.377Z,26.20
2022-08-16T09:49:04.647Z,26.30
2022-08-16T09:51:36.790Z,26.40
2022-08-16T09:54:06.157Z,26.60
2022-08-16T09:56:39.588Z,26.60
2022-08-16T09:59:22.244Z,26.60
2022-08-16T10:01:51.681Z,26.60
2022-08-16T10:04:30.477Z,26.60
2022-08-16T10:07:01.656Z,26.60
2022-08-16T10:09:44.926Z,26.50
2022-08-16T10:12:42.777Z,26.40
2022-08-16T10:15:15.812Z,26.20
2022-08-16T10:18:01.616Z,25.90
2022-08-16T10:20:35.467Z,25.70
2022-08-16T10:23:08.436Z,25.50
2022-08-16T10:27:17.462Z,25.30
2022-08-16T10:28:32.438Z,25.20
2022-08-16T10:31:08.814Z,25.10
2022-08-16T10:33:40.891Z,25.10
2022-08-16T10:36:09.141Z,25.10
2022-08-16T10:38:42.006Z,25.20
2022-08-16T10:41:11.087Z,25.30
2022-08-16T10:43:43.962Z,25.50
2022-08-16T10:46:39.228Z,25.60
2022-08-16T10:49:01.034Z,25.80
2022-08-16T10:51:34.419Z,26.00
2022-08-16T10:54:29.183Z,26.20
2022-08-16T10:57:04.342Z,26.40
2022-08-16T10:59:46.878Z,26.60
2022-08-16T11:02:59.224Z,26.90
2022-08-16T11:05:14.138Z,27.10
2022-08-16T11:07:51.964Z,27.30
2022-08-16T11:19:05.781Z,28.00
2022-08-16T11:24:39.541Z,28.20
2022-08-16T11:27:23.314Z,28.20
2022-08-16T11:29:55.031Z,28.30
2022-08-16T11:32:31.594Z,28.30
2022-08-16T11:35:13.883Z,28.30
2022-08-16T11:40:37.892Z,28.20
2022-08-16T11:43:06.576Z,28.20
2022-08-16T11:45:35.447Z,28.10
2022-08-16T11:48:05.102Z,28.10
2022-08-16T11:50:33.766Z,28.10
2022-08-16T11:53:03.644Z,28.00
2022-08-16T11:55:32.349Z,28.00
2022-08-16T11:58:00.470Z,27.90
2022-08-16T12:00:42.669Z,27.90
2022-08-16T12:03:17.877Z,27.80
2022-08-16T12:05:46.657Z,27.80
2022-08-16T12:08:20.169Z,27.80
2022-08-16T12:10:53.683Z,27.70
2022-08-16T12:13:20.769Z,27.70
2022-08-16T12:15:48.923Z,27.60
2022-08-16T12:18:20.752Z,27.60
2022-08-16T12:20:48.719Z,27.60
2022-08-16T12:23:17.361Z,27.60
2022-08-16T12:25:44.985Z,27.60
2022-08-16T12:28:12.948Z,27.60
2022-08-16T12:30:44.473Z,27.60
2022-08-16T12:33:16.281Z,27.60
2022-08-16T12:35:53.208Z,27.60
2022-08-16T12:38:41.716Z,27.60
2022-08-16T12:41:08.249Z,27.60
2022-08-16T12:43:36.415Z,27.70
2022-08-16T12:46:10.622Z,27.70
2022-08-16T12:48:58.029Z,27.70
2022-08-16T12:51:58.976Z,27.70
2022-08-16T12:54:27.473Z,27.80
2022-08-16T12:56:54.985Z,27.80
2022-08-16T12:59:23.654Z,27.90
2022-08-16T13:01:58.198Z,27.90
2022-08-16T13:04:31.421Z,27.90
2022-08-16T13:09:42.388Z,28.00
2022-08-16T13:12:20.993Z,28.00
2022-08-16T13:14:49.979Z,28.10
2022-08-16T13:17:22.452Z,28.20
2022-08-16T13:20:11.063Z,28.30
2022-08-16T13:23:11.345Z,28.30
2022-08-16T13:25:41.482Z,28.40
2022-08-16T13:28:08.882Z,28.40
2022-08-16T13:30:51.636Z,28.50
2022-08-16T13:33:24.771Z,28.50
2022-08-16T13:35:58.371Z,28.60
2022-08-16T13:38:37.283Z,28.70
2022-08-16T13:41:09.489Z,28.70
2022-08-16T13:43:39.530Z,28.90
2022-08-16T13:46:07.654Z,29.00
2022-08-16T13:48:42.954Z,29.10
2022-08-16T13:51:15.738Z,29.30
2022-08-16T13:53:49.643Z,29.50
2022-08-16T13:56:25.734Z,29.70
2022-08-16T13:58:54.753Z,29.90
2022-08-16T14:01:23.055Z,30.10
2022-08-16T14:03:54.656Z,30.10
2022-08-16T14:06:23.055Z,30.10
2022-08-16T14:09:06.227Z,30.00
2022-08-16T14:11:34.980Z,29.90
2022-08-16T14:14:05.562Z,29.90
2022-08-16T14:16:34.882Z,30.00
2022-08-16T14:19:03.483Z,30.10
2022-08-16T14:21:35.482Z,30.30
2022-08-16T14:24:08.141Z,30.40
2022-08-16T14:26:50.346Z,30.50
2022-08-16T14:31:53.519Z,30.70
2022-08-16T14:34:22.012Z,30.80
2022-08-16T14:36:53.339Z,30.70
2022-08-16T14:39:22.180Z,30.70
2022-08-16T14:41:53.584Z,30.60
2022-08-16T14:44:23.706Z,30.40
2022-08-16T14:46:53.425Z,30.30
2022-08-16T14:49:20.475Z,30.10
2022-08-16T14:51:48.843Z,30.00
2022-08-16T14:54:16.263Z,29.90
2022-08-16T14:56:46.888Z,29.70
2022-08-16T14:59:23.773Z,29.60
2022-08-16T15:01:59.275Z,29.60
2022-08-16T15:04:40.451Z,29.60
2022-08-16T15:07:17.634Z,29.60
2022-08-16T15:10:00.414Z,29.70
2022-08-16T15:12:33.672Z,29.90
2022-08-16T15:15:12.505Z,30.00
2022-08-16T15:17:42.153Z,30.20
2022-08-16T15:20:22.648Z,30.20
2022-08-16T15:22:52.038Z,30.40
2022-08-16T15:25:43.425Z,30.60
2022-08-16T15:28:24.036Z,30.70
2022-08-16T15:31:03.861Z,30.80
2022-08-16T15:33:42.082Z,30.80
2022-08-16T15:36:17.964Z,30.90
2022-08-16T15:38:56.272Z,31.00
2022-08-16T15:41:38.582Z,31.10
2022-08-16T15:44:10.342Z,31.20
2022-08-16T15:46:56.906Z,31.20
2022-08-16T15:49:37.253Z,31.20
2022-08-16T15:52:10.539Z,31.20
2022-08-16T15:54:52.513Z,31.20
2022-08-16T15:57:22.956Z,31.10
2022-08-16T15:59:52.507Z,31.00
2022-08-16T16:02:29.683Z,30.80
2022-08-16T16:05:00.670Z,30.70
2022-08-16T16:07:30.167Z,30.40
2022-08-16T16:09:59.649Z,30.30
2022-08-16T16:15:18.530Z,29.90
2022-08-16T16:17:46.870Z,29.80
2022-08-16T16:20:19.876Z,29.50
2022-08-16T16:22:49.869Z,29.40
2022-08-16T16:25:18.484Z,29.20
2022-08-16T16:27:46.722Z,29.10
2022-08-16T16:30:37.144Z,29.00
2022-08-16T16:33:15.610Z,28.80
2022-08-16T16:35:56.603Z,28.80
2022-08-16T16:38:31.427Z,28.70
2022-08-16T16:41:09.369Z,28.60
2022-08-16T16:43:43.183Z,28.60
2022-08-16T16:46:41.938Z,28.50
2022-08-16T16:49:03.874Z,28.50
2022-08-16T16:51:32.078Z,28.50
2022-08-16T16:54:09.787Z,28.50
2022-08-16T16:56:49.533Z,28.60
2022-08-16T16:59:18.288Z,28.50
2022-08-16T17:02:00.218Z,28.40
2022-08-16T17:04:38.970Z,28.40
2022-08-16T17:07:10.743Z,28.20
2022-08-16T17:09:40.280Z,28.20
2022-08-16T17:12:10.059Z,28.10
2022-08-16T17:14:49.086Z,27.90
2022-08-16T17:17:16.910Z,27.80
2022-08-16T17:19:44.027Z,27.70
2022-08-16T17:22:19.870Z,27.60
2022-08-16T17:24:52.541Z,27.60
2022-08-16T17:27:32.451Z,27.40
2022-08-16T17:30:15.547Z,27.30
2022-08-16T17:32:54.879Z,27.20
2022-08-16T17:35:55.497Z,27.10
2022-08-16T17:38:38.561Z,27.00
2022-08-16T17:41:12.620Z,26.80
2022-08-16T17:43:44.548Z,26.70
2022-08-16T17:46:41.450Z,26.60
2022-08-16T17:49:00.946Z,26.50
2022-08-16T17:51:28.598Z,26.40
2022-08-16T17:53:56.652Z,26.30
2022-08-16T17:56:23.770Z,26.20
2022-08-16T17:58:51.904Z,26.10
2022-08-16T18:01:24.208Z,26.10
2022-08-16T18:04:09.257Z,26.00
2022-08-16T18:06:39.777Z,26.00
2022-08-16T18:09:08.480Z,25.90
2022-08-16T18:11:42.985Z,25.80
2022-08-16T18:14:13.174Z,25.80
2022-08-16T18:16:41.290Z,25.70
2022-08-16T18:19:09.726Z,25.60
2022-08-16T18:21:55.655Z,25.50
2022-08-16T18:24:24.859Z,25.50
2022-08-16T18:26:52.613Z,25.40
2022-08-16T18:29:21.228Z,25.30
2022-08-16T18:31:50.842Z,25.30
2022-08-16T18:34:20.849Z,25.30
2022-08-16T18:36:48.190Z,25.20
2022-08-16T18:39:16.241Z,25.20
2022-08-16T18:41:47.029Z,25.20
2022-08-16T18:44:25.241Z,25.10
2022-08-16T18:46:55.722Z,25.10
2022-08-16T18:49:23.697Z,25.00
2022-08-16T18:51:50.868Z,24.90
2022-08-16T18:54:18.608Z,24.90
2022-08-16T18:56:55.702Z,24.80
2022-08-16T18:59:29.338Z,24.80
2022-08-16T19:02:00.430Z,24.70
2022-08-16T19:04:56.721Z,24.70
2022-08-16T19:07:21.390Z,24.60
2022-08-16T19:09:49.067Z,24.50
2022-08-16T19:12:16.347Z,24.50
2022-08-16T19:14:45.442Z,24.50
2022-08-16T19:17:12.936Z,24.50
2022-08-16T19:19:40.064Z,24.40
2022-08-16T19:22:07.149Z,24.40
2022-08-16T19:24:34.504Z,24.40
2022-08-16T19:27:02.800Z,24.40
2022-08-16T19:29:31.117Z,24.30
2022-08-16T19:31:58.756Z,24.40
2022-08-16T19:34:26.597Z,24.30
2022-08-16T19:36:54.231Z,24.30
2022-08-16T19:39:21.514Z,24.30
2022-08-16T19:41:52.007Z,24.20
2022-08-16T19:44:22.625Z,24.20
2022-08-16T19:46:50.573Z,24.30
2022-08-16T19:49:17.937Z,24.20
2022-08-16T19:51:47.081Z,24.20
2022-08-16T19:54:15.117Z,24.20
2022-08-16T19:56:42.313Z,24.20
2022-08-16T19:59:19.423Z,24.10
2022-08-16T20:01:53.802Z,24.10
2022-08-16T20:04:22.392Z,24.00
2022-08-16T20:06:52.297Z,24.10
2022-08-16T20:09:21.543Z,24.00
2022-08-16T20:11:49.732Z,24.00
2022-08-16T20:14:24.028Z,24.00
2022-08-16T20:16:57.903Z,24.00
2022-08-16T20:19:36.319Z,24.00
2022-08-16T20:22:51.728Z,23.90
2022-08-16T20:25:28.266Z,23.90
2022-08-16T20:27:57.003Z,23.90
2022-08-16T20:30:25.507Z,23.80
2022-08-16T20:32:53.467Z,23.80
2022-08-16T20:35:24.271Z,23.80
2022-08-16T20:37:51.861Z,23.80
2022-08-16T20:40:33.854Z,23.80
2022-08-16T20:43:14.895Z,23.80
2022-08-16T20:45:45.835Z,23.70
2022-08-16T20:48:13.601Z,23.70
2022-08-16T20:50:41.444Z,23.70
2022-08-16T20:53:09.531Z,23.70
2022-08-16T20:55:40.052Z,23.60
2022-08-16T20:58:07.270Z,23.60
2022-08-16T21:00:34.625Z,23.50
2022-08-16T21:03:07.554Z,23.60
2022-08-16T21:05:35.333Z,23.60
2022-08-16T21:08:06.940Z,23.50
2022-08-16T21:10:50.423Z,23.50
2022-08-16T21:13:17.998Z,23.50
2022-08-16T21:15:45.614Z,23.50
2022-08-16T21:18:12.763Z,23.50
2022-08-16T21:20:40.221Z,23.40
2022-08-16T21:23:08.965Z,23.40
2022-08-16T21:25:39.647Z,23.40
2022-08-16T21:28:41.553Z,23.30
2022-08-16T21:31:01.943Z,23.30
2022-08-16T21:33:29.238Z,23.20
2022-08-16T21:35:56.310Z,23.20
2022-08-16T21:38:29.676Z,23.20
2022-08-16T21:40:59.307Z,23.10
2022-08-16T21:43:31.754Z,23.10
2022-08-16T21:46:03.929Z,23.10
2022-08-16T21:48:33.951Z,23.00
2022-08-16T21:51:08.490Z,23.00
2022-08-16T21:53:37.720Z,23.00
2022-08-16T21:56:06.146Z,22.90
2022-08-16T21:58:33.644Z,22.90
2022-08-16T22:01:02.022Z,22.90
2022-08-16T22:03:32.889Z,22.80
2022-08-16T22:06:14.106Z,22.80
2022-08-16T22:08:48.043Z,22.70
2022-08-16T22:11:23.831Z,22.70
2022-08-16T22:13:58.627Z,22.70
2022-08-16T22:16:32.770Z,22.70
2022-08-16T22:19:01.159Z,22.70
2022-08-16T22:21:28.800Z,22.60
2022-08-16T22:23:58.471Z,22.60
2022-08-16T22:26:40.880Z,22.60
2022-08-16T22:29:14.629Z,22.50
2022-08-16T22:31:43.267Z,22.50
2022-08-16T22:34:10.785Z,22.40
2022-08-16T22:36:38.924Z,22.40
2022-08-16T22:39:08.904Z,22.40
2022-08-16T22:41:38.209Z,22.40
2022-08-16T22:44:06.612Z,22.30
2022-08-16T22:46:36.593Z,22.30
2022-08-16T22:49:05.669Z,22.20
2022-08-16T22:51:33.432Z,22.20
2022-08-16T22:54:01.291Z,22.20
2022-08-16T22:56:48.473Z,22.20
2022-08-16T22:59:16.003Z,22.20
2022-08-16T23:01:43.985Z,22.10
2022-08-16T23:04:11.169Z,22.10
2022-08-16T23:06:38.786Z,22.10
2022-08-16T23:09:05.894Z,22.10
2022-08-16T23:11:32.957Z,22.10
2022-08-16T23:14:00.346Z,22.10
2022-08-16T23:16:33.273Z,22.20
2022-08-16T23:19:04.614Z,22.20
2022-08-16T23:21:32.865Z,22.20
2022-08-16T23:24:00.132Z,22.20
2022-08-16T23:26:44.186Z,22.20
2022-08-16T23:29:26.496Z,22.20
2022-08-16T23:32:08.634Z,22.20
2022-08-16T23:34:35.791Z,22.20
2022-08-16T23:37:03.141Z,22.20
2022-08-16T23:39:30.375Z,22.20
2022-08-16T23:41:57.502Z,22.20
2022-08-16T23:44:42.363Z,22.20
2022-08-16T23:47:11.983Z,22.20
2022-08-16T23:49:58.105Z,22.20
2022-08-16T23:52:42.188Z,22.20
2022-08-16T23:55:14.420Z,22.20
2022-08-16T23:57:44.145Z,22.20
